createdAt,value
2022-09-03T00:01:01.834Z,3.25
2022-09-03T00:03:40.037Z,3.62
2022-09-03T00:06:21.161Z,3.55
2022-09-03T00:08:53.769Z,3.45
2022-09-03T00:14:03.282Z,3.90
2022-09-03T00:16:50.876Z,3.50
2022-09-03T00:19:23.270Z,3.40
2022-09-03T00:21:55.745Z,3.70
2022-09-03T00:24:27.114Z,3.58
2022-09-03T00:26:59.372Z,3.70
2022-09-03T00:29:49.510Z,3.65
2022-09-03T00:32:22.744Z,3.58
2022-09-03T00:34:56.919Z,3.70
2022-09-03T00:37:28.091Z,3.50
2022-09-03T00:39:59.301Z,3.65
2022-09-03T00:42:49.970Z,3.62
2022-09-03T00:45:34.576Z,3.50
2022-09-03T00:48:12.803Z,4.08
2022-09-03T00:51:00.613Z,3.65
2022-09-03T00:53:33.056Z,3.70
2022-09-03T00:56:22.410Z,3.52
2022-09-03T00:59:01.717Z,3.50
2022-09-03T01:01:37.320Z,3.75
2022-09-03T01:04:31.388Z,3.60
2022-09-03T01:07:16.060Z,3.83
2022-09-03T01:10:19.094Z,3.72
2022-09-03T01:12:51.654Z,3.62
2022-09-03T01:18:12.546Z,3.90
2022-09-03T01:21:06.405Z,3.75
2022-09-03T01:23:41.761Z,3.85
2022-09-03T01:26:38.516Z,3.45
2022-09-03T01:29:35.764Z,3.70
2022-09-03T01:32:10.090Z,3.95
2022-09-03T01:37:24.955Z,3.83
2022-09-03T01:40:03.302Z,3.77
2022-09-03T01:42:44.906Z,3.75
2022-09-03T01:45:29.613Z,3.72
2022-09-03T01:48:34.105Z,4.00
2022-09-03T01:51:12.830Z,3.92
2022-09-03T01:54:21.440Z,4.08
2022-09-03T01:57:35.335Z,4.10
2022-09-03T02:00:00.367Z,3.90
2022-09-03T02:02:30.951Z,4.03
2022-09-03T02:05:09.427Z,4.17
2022-09-03T02:07:41.901Z,4.40
2022-09-03T02:10:17.449Z,4.53
2022-09-03T02:12:55.221Z,4.00
2022-09-03T02:15:26.232Z,4.10
2022-09-03T02:17:57.488Z,4.50
2022-09-03T02:20:28.279Z,4.05
2022-09-03T02:22:59.112Z,4.10
2022-09-03T02:25:34.659Z,4.55
2022-09-03T02:28:11.213Z,3.95
2022-09-03T02:30:37.811Z,4.33
2022-09-03T02:33:07.660Z,4.10
2022-09-03T02:35:37.251Z,4.12
2022-09-03T02:38:15.592Z,4.08
2022-09-03T02:40:45.871Z,4.40
2022-09-03T02:43:18.608Z,4.40
2022-09-03T02:45:49.856Z,4.17
2022-09-03T02:48:21.951Z,4.00
2022-09-03T02:50:51.877Z,4.28
2022-09-03T02:53:21.770Z,3.90
2022-09-03T02:55:51.209Z,4.10
2022-09-03T02:58:21.171Z,4.28
2022-09-03T03:00:50.849Z,4.40
2022-09-03T03:03:20.506Z,3.92
2022-09-03T03:05:51.916Z,4.40
2022-09-03T03:08:23.988Z,3.87
2022-09-03T03:10:54.150Z,4.28
2022-09-03T03:13:24.003Z,4.05
2022-09-03T03:15:55.055Z,4.30
2022-09-03T03:18:24.941Z,3.87
2022-09-03T03:20:54.568Z,4.10
2022-09-03T03:23:23.849Z,4.20
2022-09-03T03:25:53.095Z,4.25
2022-09-03T03:28:22.535Z,3.98
2022-09-03T03:30:53.061Z,4.37
2022-09-03T03:33:22.628Z,4.20
2022-09-03T03:35:53.609Z,4.47
2022-09-03T03:38:23.022Z,3.98
2022-09-03T03:40:52.310Z,4.37
2022-09-03T03:43:21.683Z,4.10
2022-09-03T03:46:00.846Z,4.35
2022-09-03T03:48:30.153Z,3.87
2022-09-03T03:51:05.756Z,4.08
2022-09-03T03:53:36.694Z,4.40
2022-09-03T03:56:09.726Z,4.12
2022-09-03T03:58:41.734Z,4.20
2022-09-03T04:01:14.296Z,4.28
2022-09-03T04:06:14.068Z,4.25
2022-09-03T04:08:45.832Z,3.90
2022-09-03T04:11:18.165Z,4.35
2022-09-03T04:13:48.345Z,4.10
2022-09-03T04:16:20.816Z,4.12
2022-09-03T04:18:52.039Z,4.15
2022-09-03T04:21:24.432Z,4.30
2022-09-03T04:23:55.525Z,4.12
2022-09-03T04:26:29.611Z,4.30
2022-09-03T04:29:10.184Z,4.30
2022-09-03T04:31:41.717Z,4.15
2022-09-03T04:34:11.210Z,4.15
2022-09-03T04:36:40.545Z,4.25
2022-09-03T04:39:09.818Z,4.00
2022-09-03T04:41:39.469Z,4.12
2022-09-03T04:44:08.755Z,4.20
2022-09-03T04:46:39.371Z,4.22
2022-09-03T04:49:09.868Z,4.00
2022-09-03T04:51:39.272Z,3.98
2022-09-03T04:54:10.395Z,3.90
2022-09-03T04:56:40.737Z,4.10
2022-09-03T04:59:11.214Z,3.83
2022-09-03T05:01:41.575Z,4.25
2022-09-03T05:04:11.070Z,3.90
2022-09-03T05:06:40.391Z,4.20
2022-09-03T05:09:09.801Z,3.87
2022-09-03T05:11:39.094Z,3.80
2022-09-03T05:14:10.129Z,3.80
2022-09-03T05:16:39.896Z,3.90
2022-09-03T05:19:09.705Z,3.98
2022-09-03T05:21:40.470Z,3.95
2022-09-03T05:24:11.450Z,3.80
2022-09-03T05:26:41.428Z,4.15
2022-09-03T05:29:10.844Z,3.87
2022-09-03T05:31:40.659Z,3.75
2022-09-03T05:34:16.605Z,3.75
2022-09-03T05:36:41.449Z,3.98
2022-09-03T05:39:10.776Z,4.00
2022-09-03T05:41:40.394Z,3.85
2022-09-03T05:44:10.092Z,3.87
2022-09-03T05:46:39.554Z,3.58
2022-09-03T05:49:09.210Z,3.42
2022-09-03T05:51:42.709Z,3.70
2022-09-03T05:54:12.328Z,3.85
2022-09-03T05:56:42.822Z,3.80
2022-09-03T05:59:13.892Z,3.27
2022-09-03T06:01:50.978Z,3.42
2022-09-03T06:04:17.413Z,3.33
2022-09-03T06:06:48.593Z,3.50
2022-09-03T06:09:20.478Z,3.40
2022-09-03T06:11:50.807Z,3.40
2022-09-03T06:14:23.836Z,3.30
2022-09-03T06:16:53.466Z,3.30
2022-09-03T06:19:23.121Z,3.10
2022-09-03T06:21:52.479Z,3.25
2022-09-03T06:24:26.268Z,3.45
2022-09-03T06:26:56.132Z,3.50
2022-09-03T06:29:25.531Z,3.50
2022-09-03T06:31:55.993Z,3.50
2022-09-03T06:34:27.266Z,3.40
2022-09-03T06:36:57.578Z,3.70
2022-09-03T06:39:27.217Z,4.10
2022-09-03T06:41:56.785Z,3.50
2022-09-03T06:44:27.769Z,3.65
2022-09-03T06:46:58.853Z,3.92
2022-09-03T06:49:28.214Z,4.10
2022-09-03T06:51:57.727Z,3.83
2022-09-03T06:54:26.985Z,3.85
2022-09-03T06:56:56.902Z,3.67
2022-09-03T06:59:26.835Z,4.08
2022-09-03T07:01:58.276Z,4.22
2022-09-03T07:04:27.586Z,3.83
2022-09-03T07:06:58.725Z,3.95
2022-09-03T07:09:28.077Z,3.85
2022-09-03T07:11:57.449Z,4.42
2022-09-03T07:14:26.792Z,3.90
2022-09-03T07:16:56.755Z,5.08
2022-09-03T07:19:26.015Z,4.20
2022-09-03T07:21:55.297Z,4.25
2022-09-03T07:24:25.027Z,3.90
2022-09-03T07:26:55.036Z,4.42
2022-09-03T07:29:24.586Z,4.55
2022-09-03T07:31:53.924Z,4.53
2022-09-03T07:34:27.262Z,4.45
2022-09-03T07:36:56.664Z,4.92
2022-09-03T07:39:26.023Z,4.33
2022-09-03T07:41:55.348Z,4.53
2022-09-03T07:44:25.055Z,4.55
2022-09-03T07:46:54.424Z,4.70
2022-09-03T07:49:23.781Z,5.53
2022-09-03T07:51:55.860Z,5.20
2022-09-03T07:54:27.046Z,5.28
2022-09-03T07:56:57.536Z,5.20
2022-09-03T07:59:26.937Z,4.85
2022-09-03T08:01:56.580Z,4.97
2022-09-03T08:04:26.012Z,5.30
2022-09-03T08:06:57.081Z,5.33
2022-09-03T08:09:26.409Z,5.20
2022-09-03T08:11:55.740Z,5.05
2022-09-03T08:14:25.010Z,5.37
2022-09-03T08:16:54.899Z,5.90
2022-09-03T08:19:24.144Z,5.60
2022-09-03T08:21:53.659Z,5.80
2022-09-03T08:24:24.894Z,5.30
2022-09-03T08:26:54.239Z,5.12
2022-09-03T08:29:24.062Z,5.30
2022-09-03T08:31:54.163Z,5.10
2022-09-03T08:34:24.056Z,5.15
2022-09-03T08:36:54.642Z,6.17
2022-09-03T08:39:23.981Z,5.83
2022-09-03T08:41:56.544Z,5.30
2022-09-03T08:47:26.923Z,5.05
2022-09-03T08:50:02.395Z,4.92
2022-09-03T08:52:34.670Z,4.95
2022-09-03T08:55:18.959Z,5.03
2022-09-03T08:57:57.893Z,5.20
2022-09-03T09:00:30.557Z,4.90
2022-09-03T09:03:31.782Z,5.00
2022-09-03T09:06:38.919Z,5.17
2022-09-03T09:09:14.698Z,5.20
2022-09-03T09:12:11.055Z,4.85
2022-09-03T09:15:08.102Z,5.00
2022-09-03T09:17:51.183Z,4.50
2022-09-03T09:20:26.601Z,4.55
2022-09-03T09:22:59.025Z,4.75
2022-09-03T09:28:24.016Z,4.15
2022-09-03T09:30:55.691Z,5.03
2022-09-03T09:33:25.869Z,4.40
2022-09-03T09:35:55.168Z,4.28
2022-09-03T09:38:38.708Z,4.22
2022-09-03T09:41:20.251Z,4.35
2022-09-03T09:43:51.552Z,4.55
2022-09-03T09:46:27.265Z,4.62
2022-09-03T09:48:58.887Z,4.10
2022-09-03T09:51:32.385Z,3.90
2022-09-03T09:54:07.394Z,3.55
2022-09-03T09:56:36.924Z,3.70
2022-09-03T09:59:11.219Z,3.83
2022-09-03T10:01:45.627Z,4.35
2022-09-03T10:04:32.385Z,3.83
2022-09-03T10:07:07.882Z,4.00
2022-09-03T10:09:37.200Z,3.83
2022-09-03T10:12:15.793Z,4.05
2022-09-03T10:15:00.196Z,3.47
2022-09-03T10:17:47.135Z,3.70
2022-09-03T10:20:31.507Z,3.37
2022-09-03T10:23:16.305Z,3.35
2022-09-03T10:26:09.746Z,2.83
2022-09-03T10:28:41.788Z,2.95
2022-09-03T10:31:27.067Z,3.25
2022-09-03T10:34:14.521Z,3.27
2022-09-03T10:36:52.603Z,3.27
2022-09-03T10:39:42.901Z,2.70
2022-09-03T10:42:37.431Z,2.55
2022-09-03T10:45:24.693Z,2.70
2022-09-03T10:48:05.991Z,2.90
2022-09-03T10:50:48.834Z,2.80
2022-09-03T10:53:49.725Z,2.52
2022-09-03T10:56:22.790Z,3.10
2022-09-03T10:59:11.902Z,2.60
2022-09-03T11:02:05.495Z,2.62
2022-09-03T11:04:47.005Z,2.70
2022-09-03T11:07:19.050Z,2.33
2022-09-03T11:10:08.831Z,2.60
2022-09-03T11:12:41.254Z,2.45
2022-09-03T11:15:16.771Z,2.30
2022-09-03T11:17:52.143Z,2.20
2022-09-03T11:20:23.480Z,2.33
2022-09-03T11:22:55.653Z,2.60
2022-09-03T11:25:28.694Z,2.20
2022-09-03T11:28:11.689Z,2.22
2022-09-03T11:30:53.144Z,2.05
2022-09-03T11:33:25.247Z,2.22
2022-09-03T11:36:01.573Z,1.80
2022-09-03T11:38:34.614Z,2.00
2022-09-03T11:41:07.201Z,1.85
2022-09-03T11:43:37.826Z,1.80
2022-09-03T11:46:16.488Z,2.77
2022-09-03T11:49:00.521Z,2.00
2022-09-03T11:51:33.876Z,2.65
2022-09-03T11:54:09.720Z,2.02
2022-09-03T11:56:39.017Z,2.12
2022-09-03T11:59:17.668Z,1.80
2022-09-03T12:01:55.012Z,1.90
2022-09-03T12:04:28.339Z,2.08
2022-09-03T12:07:23.542Z,2.35
2022-09-03T12:10:13.229Z,1.85
2022-09-03T12:12:54.879Z,1.80
2022-09-03T12:18:19.890Z,1.75
2022-09-03T12:20:55.934Z,1.80
2022-09-03T12:23:44.757Z,2.30
2022-09-03T12:26:16.368Z,2.00
2022-09-03T12:28:48.765Z,1.70
2022-09-03T12:31:24.985Z,1.85
2022-09-03T12:33:58.136Z,2.00
2022-09-03T12:36:30.078Z,2.10
2022-09-03T12:39:18.202Z,1.92
2022-09-03T12:41:33.718Z,1.85
2022-09-03T12:44:03.784Z,1.60
2022-09-03T12:46:35.078Z,1.80
2022-09-03T12:51:53.304Z,1.98
2022-09-03T12:54:17.680Z,2.00
2022-09-03T12:56:49.705Z,1.90
2022-09-03T12:59:20.761Z,2.00
2022-09-03T13:02:01.801Z,2.25
2022-09-03T13:04:35.866Z,2.60
2022-09-03T13:07:08.338Z,1.92
2022-09-03T13:09:39.458Z,2.10
2022-09-03T13:12:10.865Z,2.30
2022-09-03T13:14:44.622Z,2.20
2022-09-03T13:17:38.053Z,2.27
2022-09-03T13:20:30.194Z,2.00
2022-09-03T13:26:06.258Z,1.95
2022-09-03T13:28:58.952Z,2.30
2022-09-03T13:31:34.248Z,2.25
2022-09-03T13:34:12.687Z,1.90
2022-09-03T13:36:53.510Z,2.20
2022-09-03T13:39:55.821Z,1.80
2022-09-03T13:42:33.903Z,2.00
2022-09-03T13:45:08.710Z,2.00
2022-09-03T13:47:42.688Z,2.10
2022-09-03T13:50:23.231Z,2.05
2022-09-03T13:53:01.894Z,2.10
2022-09-03T13:55:51.708Z,2.42
2022-09-03T13:58:24.384Z,2.22
2022-09-03T14:01:07.547Z,2.22
2022-09-03T14:03:48.998Z,2.25
2022-09-03T14:06:32.460Z,2.35
2022-09-03T14:09:30.618Z,2.00
2022-09-03T14:12:08.809Z,2.22
2022-09-03T14:14:55.178Z,2.20
2022-09-03T14:17:51.891Z,2.30
2022-09-03T14:20:36.410Z,2.15
2022-09-03T14:23:35.996Z,2.35
2022-09-03T14:26:07.712Z,2.15
2022-09-03T14:28:39.177Z,2.40
2022-09-03T14:31:28.345Z,2.92
2022-09-03T14:34:00.798Z,2.40
2022-09-03T14:36:33.504Z,2.12
2022-09-03T14:39:08.543Z,2.30
2022-09-03T14:41:56.491Z,2.25
2022-09-03T14:45:03.267Z,2.33
2022-09-03T14:47:58.643Z,2.20
2022-09-03T14:50:58.357Z,2.60
2022-09-03T14:53:37.255Z,2.50
2022-09-03T14:56:24.961Z,2.20
2022-09-03T14:58:58.681Z,2.40
2022-09-03T15:01:39.460Z,2.47
2022-09-03T15:04:19.698Z,2.77
2022-09-03T15:06:52.095Z,3.10
2022-09-03T15:09:33.651Z,2.75
2022-09-03T15:12:06.059Z,2.85
2022-09-03T15:14:44.335Z,2.95
2022-09-03T15:17:33.578Z,3.20
2022-09-03T15:20:24.518Z,2.80
2022-09-03T15:23:14.805Z,2.60
2022-09-03T15:26:10.041Z,2.70
2022-09-03T15:29:16.084Z,2.52
2022-09-03T15:32:12.975Z,2.40
2022-09-03T15:34:59.191Z,2.33
2022-09-03T15:37:31.504Z,2.37
2022-09-03T15:40:10.313Z,2.50
2022-09-03T15:42:39.866Z,2.90
2022-09-03T15:45:24.544Z,2.87
2022-09-03T15:47:57.022Z,3.72
2022-09-03T15:50:35.518Z,3.77
2022-09-03T15:53:08.457Z,3.37
2022-09-03T15:55:43.205Z,3.50
2022-09-03T15:58:24.374Z,2.70
2022-09-03T16:01:14.960Z,3.10
2022-09-03T16:04:20.772Z,2.83
2022-09-03T16:07:05.178Z,2.60
2022-09-03T16:09:57.506Z,2.65
2022-09-03T16:12:29.527Z,2.70
2022-09-03T16:15:23.414Z,2.58
2022-09-03T16:18:12.237Z,2.80
2022-09-03T16:21:00.116Z,2.60
2022-09-03T16:23:35.541Z,2.72
2022-09-03T16:26:08.144Z,2.72
2022-09-03T16:28:52.869Z,2.75
2022-09-03T16:31:58.375Z,2.50
2022-09-03T16:34:54.755Z,3.17
2022-09-03T16:37:44.006Z,2.75
2022-09-03T16:40:35.891Z,2.72
2022-09-03T16:43:41.690Z,3.00
2022-09-03T16:46:17.217Z,3.02
2022-09-03T16:48:58.720Z,6.83
2022-09-03T16:51:37.104Z,3.87
2022-09-03T16:54:19.891Z,3.52
2022-09-03T16:57:07.271Z,3.20
2022-09-03T17:00:10.148Z,2.65
2022-09-03T17:05:37.421Z,3.12
2022-09-03T17:08:22.252Z,3.05
2022-09-03T17:11:22.020Z,3.00
2022-09-03T17:13:54.613Z,2.77
2022-09-03T17:16:33.093Z,2.85
2022-09-03T17:19:20.448Z,2.52
2022-09-03T17:22:17.167Z,2.70
2022-09-03T17:25:01.704Z,2.75
2022-09-03T17:27:50.542Z,2.60
2022-09-03T17:30:24.105Z,2.50
2022-09-03T17:33:01.238Z,2.67
2022-09-03T17:35:54.395Z,2.40
2022-09-03T17:38:45.543Z,3.05
2022-09-03T17:41:52.047Z,2.22
2022-09-03T17:44:51.620Z,2.40
2022-09-03T17:47:32.980Z,2.30
2022-09-03T17:50:11.690Z,2.30
2022-09-03T17:52:43.664Z,2.30
2022-09-03T17:55:39.547Z,2.80
2022-09-03T17:58:23.706Z,2.20
2022-09-03T18:01:14.368Z,4.37
2022-09-03T18:04:04.957Z,6.28
2022-09-03T18:06:47.210Z,6.50
2022-09-03T18:09:38.124Z,4.45
2022-09-03T18:12:16.218Z,3.17
2022-09-03T18:14:56.873Z,2.83
2022-09-03T18:17:38.402Z,2.70
2022-09-03T18:20:27.871Z,3.00
2022-09-03T18:23:24.099Z,3.47
2022-09-03T18:26:16.217Z,2.47
2022-09-03T18:29:12.815Z,2.33
2022-09-03T18:32:00.092Z,2.35
2022-09-03T18:34:52.328Z,2.33
2022-09-03T18:37:45.157Z,2.60
2022-09-03T18:43:53.400Z,2.92
2022-09-03T18:50:13.369Z,3.17
2022-09-03T18:53:07.576Z,3.10
2022-09-03T18:56:15.595Z,3.87
2022-09-03T18:59:29.908Z,3.90
2022-09-03T19:02:17.650Z,3.20
2022-09-03T19:05:14.196Z,3.37
2022-09-03T19:08:16.263Z,3.30
2022-09-03T19:11:11.708Z,3.55
2022-09-03T19:14:00.313Z,2.85
2022-09-03T19:17:07.208Z,3.50
2022-09-03T19:20:09.213Z,3.20
2022-09-03T19:22:58.551Z,3.22
2022-09-03T19:25:47.985Z,3.20
2022-09-03T19:28:39.725Z,3.30
2022-09-03T19:31:35.585Z,3.30
2022-09-03T19:34:59.018Z,3.50
2022-09-03T19:41:18.310Z,3.45
2022-09-03T19:44:08.447Z,3.20
2022-09-03T19:47:07.895Z,7.65
2022-09-03T19:50:21.137Z,4.80
2022-09-03T19:53:19.411Z,5.87
2022-09-03T19:56:14.632Z,5.08
2022-09-03T19:59:10.677Z,4.95
2022-09-03T20:01:58.110Z,4.55
2022-09-03T20:04:59.880Z,4.97
2022-09-03T20:07:47.070Z,4.97
2022-09-03T20:10:22.999Z,4.45
2022-09-03T20:12:58.492Z,4.70
2022-09-03T20:15:31.098Z,5.03
2022-09-03T20:18:18.109Z,5.08
2022-09-03T20:21:02.560Z,4.83
2022-09-03T20:23:54.289Z,5.30
2022-09-03T20:26:45.953Z,5.33
2022-09-03T20:29:27.256Z,4.72
2022-09-03T20:32:14.372Z,4.28
2022-09-03T20:34:58.912Z,4.70
2022-09-03T20:37:31.456Z,5.42
2022-09-03T20:42:55.125Z,5.47
2022-09-03T20:45:27.228Z,5.28
2022-09-03T20:48:19.395Z,5.08
2022-09-03T20:51:01.205Z,5.30
2022-09-03T20:53:57.672Z,5.40
2022-09-03T20:56:36.258Z,5.03
2022-09-03T20:59:23.754Z,6.25
2022-09-03T21:01:56.299Z,5.80
2022-09-03T21:04:40.640Z,5.33
2022-09-03T21:07:15.797Z,5.20
2022-09-03T21:10:03.347Z,5.85
2022-09-03T21:12:35.931Z,5.85
2022-09-03T21:17:54.891Z,5.60
2022-09-03T21:20:39.017Z,6.45
2022-09-03T21:23:34.859Z,5.70
2022-09-03T21:26:21.562Z,6.00
2022-09-03T21:29:00.017Z,5.78
2022-09-03T21:31:41.720Z,6.20
2022-09-03T21:34:14.288Z,6.47
2022-09-03T21:39:31.222Z,7.10
2022-09-03T21:42:06.455Z,7.03
2022-09-03T21:44:44.635Z,6.42
2022-09-03T21:47:18.770Z,6.58
2022-09-03T21:50:03.272Z,6.42
2022-09-03T21:52:45.333Z,6.10
2022-09-03T21:55:32.846Z,5.62
2022-09-03T21:58:32.679Z,6.20
2022-09-03T22:01:07.935Z,6.28
2022-09-03T22:03:37.247Z,6.47
2022-09-03T22:06:09.678Z,5.97
2022-09-03T22:08:43.873Z,6.30
2022-09-03T22:11:33.188Z,5.80
2022-09-03T22:14:11.280Z,6.30
2022-09-03T22:16:55.803Z,5.97
2022-09-03T22:19:25.466Z,6.70
2022-09-03T22:21:59.850Z,5.92
2022-09-03T22:24:33.316Z,6.70
2022-09-03T22:27:12.237Z,7.20
2022-09-03T22:29:45.210Z,8.33
2022-09-03T22:32:26.443Z,11.28
2022-09-03T22:35:14.219Z,9.83
2022-09-03T22:37:58.657Z,7.62
2022-09-03T22:40:50.698Z,7.72
2022-09-03T22:43:41.421Z,8.20
2022-09-03T22:46:15.827Z,8.05
2022-09-03T22:49:13.913Z,7.20
2022-09-03T22:51:49.088Z,7.37
2022-09-03T22:54:48.666Z,8.08
2022-09-03T22:57:19.835Z,8.35
2022-09-03T22:59:58.267Z,8.08
2022-09-03T23:02:29.760Z,9.35
2022-09-03T23:05:17.703Z,9.25
2022-09-03T23:07:55.567Z,8.90
2022-09-03T23:10:44.065Z,9.78
2022-09-03T23:13:19.657Z,9.20
2022-09-03T23:15:52.346Z,8.90
2022-09-03T23:18:26.205Z,8.55
2022-09-03T23:21:20.289Z,7.40
2022-09-03T23:24:02.633Z,7.25
2022-09-03T23:26:43.985Z,9.28
2022-09-03T23:29:31.252Z,8.95
2022-09-03T23:32:01.427Z,9.35
2022-09-03T23:34:30.737Z,8.08
2022-09-03T23:37:40.049Z,9.90
2022-09-03T23:40:17.101Z,10.03
2022-09-03T23:43:19.631Z,7.83
2022-09-03T23:46:25.668Z,9.63
2022-09-03T23:49:13.274Z,9.80
2022-09-03T23:52:03.604Z,10.60
2022-09-03T23:54:57.148Z,8.63
2022-09-03T23:57:32.429Z,9.40
